Ukiah, CA

7:28 AM PDT on September 20, 2014 (GMT -0700)
MesoWest Lake Mendocino CA US CDEC | Change Station
CLOSE
Current Station
Personal Weather Station
Location: Ukiah, CA
Elevation: 669 ft
Nearby Weather Stations

Elev 669 ft 39.20 °N, 123.19 °W | Updated 43 minutes ago

Fog
Fog
56 °F
Feels Like 56 °F
N
3
Wind Variable Wind from West
Gusts 0.0 mph

Today
High -- | Low -- °F
--% Chance of Precip.
Yesterday
High -- | Low -- °F
Precip. -- in
6:58 AM 7:12 PM
Waning Crescent, 12% visible
Pressure 29.92 in
Visibility 0.5 miles
Clouds
Dew Point 53 °F
Humidity 89%
Rainfall 0.00 in
Snow Depth 0 in , 0 in , 1 in
UV Not available.
Pollen 6.00 out of 12
Air Quality Not available.
Flu Activity Not available.
SPECI KUKI 201417Z AUTO 00000KT 1/2SM FG VV002 14/13 A2992 RMK AO2 T01390133

More Conditions Fewer Conditions

Pressure 29.92 in
Visibility 0.5 miles
Clouds
Dew Point 53 °F
Humidity 89%
Rainfall 0.00 in
Snow Depth 0 in , 0 in , 1 in
UV Not available.
Pollen 6.00 out of 12
Air Quality Not available.
Flu Activity Not available.
SPECI KUKI 201417Z AUTO 00000KT 1/2SM FG VV002 14/13 A2992 RMK AO2 T01390133

More Conditions Fewer Conditions

Nowcast | as of 6:03 am PDT on September 20, 2014

Areas of dense fog will result in significant visibility reductions this morning. Motorists are encouraged to reduce their speed...increase following distances...and use low beam headlights in areas of fog.

×

10-Day Weather Forecast

Almanac

Astronomy

Sep. 20, 2014 Rise Set
Actual Time 6:58 AM PDT 7:12 PM PDT
Civil Twilight 6:32 AM PDT 7:39 PM PDT
Nautical Twilight 6:00 AM PDT 8:10 PM PDT
Astronomical Twilight 5:28 AM PDT 8:42 PM PDT
Moon 3:44 AM PDT 5:18 PM PDT
Length of Visible Light 13h 07m
Length of Day
12h 14m
Tomorrow will be 2m 31s shorter.
Waning Crescent, 12% of the Moon is Illuminated
Today
Waning Crescent
Sep 24
New
Oct 1
First Quarter
Oct 8
Full
Oct 15
Last Quarter

Today's Extremes

State Highs State Lows

Community

WunderPhotos

Upload Photos

1,754,871 photos uploaded!

Nearby

Snow Depth

Station Depth Elevation
Independence Creek 0 in 6500 ft
Rubicon #2 0 in 7500 ft
Echo Peak 1 in 7800 ft
Monitor Pass 0 in 8350 ft
Blue Lakes 0 in 8000 ft

Earthquake Activity

City Distance Mag. Time & Date
Livermore, California 129 miles 2.6 3:37 AM PDT
2014-09-19
The Geysers, California 38 miles 2.5 11:29 PM PDT
2014-09-17
Minimum magnitude displayed is 2.5.

Coastal Water Temperatures

Place Temperature
Arena Cove, CA 62.1 °F
North Spit, CA 62.1 °F
Point Reyes, CA 66.0 °F
San Francisco, CA 66.0 °F
Richmond, CA 68.0 °F

Nearby Weather Stations